Time;durP1;ratioP1;P1;durP2;ratioP2;P2;SDS_P1;SDS_P2;PMS_P1;PMS_P2;Temp;Humidity;BMP_temperature;BMP_pressure;BME280_temperature;BME280_humidity;BME280_pressure;Samples;Min_cycle;Max_cycle;Signal;HPM_P1;HPM_P2
2023/09/09 00:01:59;;;;;;;;;;;;;;;25.84;49.15;101322.56;5074537;28;19924;-60
2023/09/09 00:04:26;;;;;;;;;;;;;;;25.84;49.00;101309.00;5074217;28;19931;-60
2023/09/09 00:06:54;;;;;;;;;;;;;;;25.85;48.95;101326.16;5074229;28;19924;-60
2023/09/09 00:09:21;;;;;;;;;;;;;;;25.85;49.05;101324.28;5074830;28;19924;-60
2023/09/09 00:11:48;;;;;;;;;;;;;;;25.85;49.22;101324.28;5074240;28;20302;-60
2023/09/09 00:14:15;;;;;;;;;;;;;;;25.86;49.17;101325.16;5074123;28;19932;-60
2023/09/09 00:16:42;;;;;;;;;;;;;;;25.85;48.99;101321.59;5074040;28;19925;-60
2023/09/09 00:19:09;;;;;;;;;;;;;;;25.87;49.08;101321.41;5074360;28;19924;-59
2023/09/09 00:21:37;;;;;;;;;;;;;;;25.86;48.94;101325.16;5074223;28;19932;-60
2023/09/09 00:24:04;;;;;;;;;;;;;;;25.86;48.91;101326.00;5074006;28;19931;-60
2023/09/09 00:26:32;;;;;;;;;;;;;;;25.86;49.00;101325.16;5068907;28;19925;-60
2023/09/09 00:28:59;;;;;;;;;;;;;;;25.86;49.10;101336.00;5071917;28;19925;-59
2023/09/09 00:31:27;;;;;;;;;;;;;;;25.86;48.85;101334.13;5072329;28;19929;-59
2023/09/09 00:33:54;;;;;;;;;;;;;;;25.86;48.98;101333.28;5074237;28;19924;-59
2023/09/09 00:36:21;;;;;;;;;;;;;;;25.86;49.00;101331.41;5072131;28;19924;-59
2023/09/09 00:38:48;;;;;;;;;;;;;;;25.85;49.00;101332.44;5074065;28;19924;-59
2023/09/09 00:41:17;;;;;;;;;;;;;;;25.86;48.99;101334.13;5072254;28;19928;-59
2023/09/09 00:43:47;;;;;;;;;;;;;;;25.86;49.10;101330.56;5072615;28;19924;-59
2023/09/09 00:46:15;;;;;;;;;;;;;;;25.86;49.09;101333.28;5072291;28;19925;-59
2023/09/09 00:48:43;;;;;;;;;;;;;;;25.86;49.03;101347.69;5074208;28;19925;-57
2023/09/09 00:51:11;;;;;;;;;;;;;;;25.87;49.00;101337.69;5074101;28;19924;-57
2023/09/09 00:53:39;;;;;;;;;;;;;;;25.87;49.14;101337.69;5072616;28;19935;-57
2023/09/09 00:56:06;;;;;;;;;;;;;;;25.87;48.93;101348.53;5073888;28;20301;-57
2023/09/09 00:58:33;;;;;;;;;;;;;;;25.86;48.97;101338.72;5073696;28;19935;-57
2023/09/09 01:01:02;;;;;;;;;;;;;;;25.87;49.16;101334.97;5073834;28;19932;-57
2023/09/09 01:03:30;;;;;;;;;;;;;;;25.87;49.00;101349.38;5073925;28;19924;-57
2023/09/09 01:05:59;;;;;;;;;;;;;;;25.86;49.04;101336.84;5074903;28;19925;-57
2023/09/09 01:08:27;;;;;;;;;;;;;;;25.86;48.99;101347.69;5077950;28;19946;-57
2023/09/09 01:10:55;;;;;;;;;;;;;;;25.87;49.11;101338.53;5078099;28;19932;-57
2023/09/09 01:13:23;;;;;;;;;;;;;;;25.86;49.06;101333.28;5077959;28;19924;-57
2023/09/09 01:15:50;;;;;;;;;;;;;;;25.86;49.16;101334.13;5077906;28;19925;-57
2023/09/09 01:18:18;;;;;;;;;;;;;;;25.86;49.18;101330.56;5077863;28;19925;-57
2023/09/09 01:21:06;;;;;;;;;;;;;;;25.87;49.12;101334.97;5078333;28;19947;-57
2023/09/09 01:23:33;;;;;;;;;;;;;;;25.86;49.10;101331.41;5077707;28;20298;-57
2023/09/09 01:26:01;;;;;;;;;;;;;;;25.86;49.14;101334.13;5076321;28;19925;-57
2023/09/09 01:28:28;;;;;;;;;;;;;;;25.85;49.14;101324.28;5076051;28;19947;-59
2023/09/09 01:30:55;;;;;;;;;;;;;;;25.86;49.19;101326.00;5077220;28;19924;-60
2023/09/09 01:33:23;;;;;;;;;;;;;;;25.86;48.99;101326.00;5077690;28;19931;-60
2023/09/09 01:35:50;;;;;;;;;;;;;;;25.87;49.17;101337.69;5077394;28;19931;-60
2023/09/09 01:38:17;;;;;;;;;;;;;;;25.87;49.12;101332.25;5075480;28;20390;-57
2023/09/09 01:40:44;;;;;;;;;;;;;;;25.86;49.12;101331.41;5075802;28;19925;-57
2023/09/09 01:43:12;;;;;;;;;;;;;;;25.86;48.94;101325.16;5075152;28;19948;-57
2023/09/09 01:45:39;;;;;;;;;;;;;;;25.86;48.94;101327.84;5075898;28;19932;-57
2023/09/09 01:48:07;;;;;;;;;;;;;;;25.86;48.93;101331.41;5077454;28;19929;-59
2023/09/09 01:50:35;;;;;;;;;;;;;;;25.86;48.92;101325.16;5075626;28;19925;-59
2023/09/09 01:53:03;;;;;;;;;;;;;;;25.86;48.91;101334.13;5075002;28;19924;-59
2023/09/09 01:55:30;;;;;;;;;;;;;;;25.86;48.99;101331.41;5076828;28;19925;-60
2023/09/09 01:57:57;;;;;;;;;;;;;;;25.85;49.05;101324.28;5075577;28;20378;-57
2023/09/09 02:00:27;;;;;;;;;;;;;;;25.86;49.17;101330.56;5075131;28;19924;-57
2023/09/09 02:02:55;;;;;;;;;;;;;;;25.86;49.03;101326.00;5076769;28;19931;-57
2023/09/09 02:05:22;;;;;;;;;;;;;;;25.87;49.05;101329.53;5076827;28;19924;-59
2023/09/09 02:07:49;;;;;;;;;;;;;;;25.85;49.19;101318.88;5076824;28;19925;-60
2023/09/09 02:10:17;;;;;;;;;;;;;;;25.84;49.02;101316.31;5076440;28;19932;-61
2023/09/09 02:12:44;;;;;;;;;;;;;;;25.82;48.75;101313.75;5076739;28;19924;-61
2023/09/09 02:15:13;;;;;;;;;;;;;;;25.80;48.68;101314.94;5074775;28;19925;-61
2023/09/09 02:17:40;;;;;;;;;;;;;;;25.80;48.40;101331.19;5075222;28;19924;-62
2023/09/09 02:20:10;;;;;;;;;;;;;;;25.79;48.30;101324.94;5074833;28;19924;-59
2023/09/09 02:22:37;;;;;;;;;;;;;;;25.77;48.62;101323.38;5075443;28;19929;-59
2023/09/09 02:25:05;;;;;;;;;;;;;;;25.76;48.18;101327.94;5076164;28;20394;-59
2023/09/09 02:27:32;;;;;;;;;;;;;;;25.74;48.15;101315.56;5076310;28;19925;-59
2023/09/09 02:29:59;;;;;;;;;;;;;;;25.73;48.19;101324.72;5076020;28;19924;-58
2023/09/09 02:32:27;;;;;;;;;;;;;;;25.71;48.02;101326.72;5074598;28;19925;-59
2023/09/09 02:34:55;;;;;;;;;;;;;;;25.70;48.05;101317.75;5074917;28;19925;-59
2023/09/09 02:37:22;;;;;;;;;;;;;;;25.72;48.04;101323.00;5074775;28;20302;-59
2023/09/09 02:39:50;;;;;;;;;;;;;;;25.71;47.93;101321.31;5074542;28;20287;-61
2023/09/09 02:42:22;;;;;;;;;;;;;;;25.70;47.92;101330.47;5074762;28;19935;-61
2023/09/09 02:44:49;;;;;;;;;;;;;;;25.68;48.12;101318.91;5074642;28;19924;-61
2023/09/09 02:47:17;;;;;;;;;;;;;;;25.69;47.99;101323.34;5074584;28;20405;-61
2023/09/09 02:49:44;;;;;;;;;;;;;;;25.69;48.01;101320.63;5074728;28;20301;-59
2023/09/09 02:52:13;;;;;;;;;;;;;;;25.69;47.90;101326.91;5075822;28;19948;-59
2023/09/09 02:54:40;;;;;;;;;;;;;;;25.69;47.84;101323.34;5073879;28;19931;-59
2023/09/09 02:57:08;;;;;;;;;;;;;;;25.70;47.92;101322.31;5057672;28;19936;-59
2023/09/09 02:59:36;;;;;;;;;;;;;;;25.69;47.91;101315.22;5075468;28;19924;-61
2023/09/09 03:02:06;;;;;;;;;;;;;;;25.69;47.91;101323.34;5074357;28;19931;-61
2023/09/09 03:04:34;;;;;;;;;;;;;;;25.69;47.90;101318.75;5075602;28;19924;-61
2023/09/09 03:07:01;;;;;;;;;;;;;;;25.68;48.02;101327.88;5074146;28;19925;-61
2023/09/09 03:09:29;;;;;;;;;;;;;;;25.69;47.90;101323.34;5075856;28;19929;-61
2023/09/09 03:11:57;;;;;;;;;;;;;;;25.69;47.99;101323.34;5074614;28;19925;-61
2023/09/09 03:14:25;;;;;;;;;;;;;;;25.70;47.94;101327.75;5057981;28;19946;-61
2023/09/09 03:16:52;;;;;;;;;;;;;;;25.68;48.00;101324.34;5075175;28;19931;-61
2023/09/09 03:19:19;;;;;;;;;;;;;;;25.67;47.81;101330.78;5065337;28;20390;-59
2023/09/09 03:21:47;;;;;;;;;;;;;;;25.65;47.66;101325.53;5074683;28;20274;-59
2023/09/09 03:24:14;;;;;;;;;;;;;;;25.65;47.71;101331.78;5075144;28;19961;-59
2023/09/09 03:26:41;;;;;;;;;;;;;;;25.63;47.68;101331.09;5056969;28;19925;-59
2023/09/09 03:29:09;;;;;;;;;;;;;;;25.62;47.60;101328.56;5066534;28;19928;-59
2023/09/09 03:31:36;;;;;;;;;;;;;;;25.61;47.59;101329.56;5073233;28;19925;-59
2023/09/09 03:34:03;;;;;;;;;;;;;;;25.61;47.62;101326.84;5073806;28;19932;-59
2023/09/09 03:36:34;;;;;;;;;;;;;;;25.60;47.68;101334.16;5074887;28;20401;-59
2023/09/09 03:39:03;;;;;;;;;;;;;;;25.58;47.48;101327.19;5073432;28;19924;-61
2023/09/09 03:41:31;;;;;;;;;;;;;;;25.58;47.64;101333.44;5073184;28;19929;-61
2023/09/09 03:43:58;;;;;;;;;;;;;;;25.56;47.68;101330.06;5066651;28;19924;-61
2023/09/09 03:46:26;;;;;;;;;;;;;;;25.55;47.48;101327.50;5073177;28;19924;-61
2023/09/09 03:48:55;;;;;;;;;;;;;;;25.53;47.59;101338.50;5073343;28;19924;-61
2023/09/09 03:51:22;;;;;;;;;;;;;;;25.53;47.64;101329.53;5073440;28;19925;-61
2023/09/09 03:53:49;;;;;;;;;;;;;;;25.53;47.77;101327.66;5074158;28;19947;-61
2023/09/09 03:56:18;;;;;;;;;;;;;;;25.53;47.69;101332.25;5072833;28;19931;-61
2023/09/09 03:58:45;;;;;;;;;;;;;;;25.53;47.58;101329.53;5075103;28;19924;-61
2023/09/09 04:01:12;;;;;;;;;;;;;;;25.52;47.68;101328.69;5072981;28;19999;-61
2023/09/09 04:03:41;;;;;;;;;;;;;;;25.52;47.56;101325.97;5066633;28;20405;-61
2023/09/09 04:06:12;;;;;;;;;;;;;;;25.51;47.56;101326.97;5072643;28;20398;-61
2023/09/09 04:08:41;;;;;;;;;;;;;;;25.51;47.59;101323.41;5073450;28;19925;-61
2023/09/09 04:11:09;;;;;;;;;;;;;;;25.51;47.56;101331.53;5071878;28;20401;-61
2023/09/09 04:13:38;;;;;;;;;;;;;;;25.49;47.51;101326.28;5074200;28;20387;-61
2023/09/09 04:16:07;;;;;;;;;;;;;;;25.47;47.47;101325.56;5072686;28;19924;-61
2023/09/09 04:18:35;;;;;;;;;;;;;;;25.47;47.54;101327.44;5073452;28;19939;-59
2023/09/09 04:21:14;;;;;;;;;;;;;;;25.46;47.62;101328.47;5072571;28;19925;-59
2023/09/09 04:23:41;;;;;;;;;;;;;;;25.46;47.53;101323.03;5074012;28;20390;-59
2023/09/09 04:26:09;;;;;;;;;;;;;;;25.43;47.57;101318.78;5073922;28;20382;-59
2023/09/09 04:28:37;;;;;;;;;;;;;;;25.43;47.51;101324.19;5072753;28;20379;-61
2023/09/09 04:31:05;;;;;;;;;;;;;;;25.43;47.71;101326.91;5074164;28;19924;-61
2023/09/09 04:33:35;;;;;;;;;;;;;;;25.42;47.59;101327.09;5072451;28;20294;-61
2023/09/09 04:36:03;;;;;;;;;;;;;;;25.41;47.56;101320.81;5071914;28;19931;-61
2023/09/09 04:38:30;;;;;;;;;;;;;;;25.40;47.50;101324.50;5072560;28;19925;-59
2023/09/09 04:40:58;;;;;;;;;;;;;;;25.39;47.54;101325.53;5071854;28;19932;-59
2023/09/09 04:43:26;;;;;;;;;;;;;;;25.39;47.42;101329.09;5072333;28;19999;-59
2023/09/09 04:45:53;;;;;;;;;;;;;;;25.39;47.68;101325.53;5072585;28;19924;-59
2023/09/09 04:48:21;;;;;;;;;;;;;;;25.38;47.72;101334.69;5072612;28;19925;-61
2023/09/09 04:50:48;;;;;;;;;;;;;;;25.39;47.78;101339.09;5073547;28;19924;-61
2023/09/09 04:53:15;;;;;;;;;;;;;;;25.39;47.67;101336.38;5073775;28;19931;-61
2023/09/09 04:55:43;;;;;;;;;;;;;;;25.37;47.52;101338.41;5072264;28;19924;-61
2023/09/09 04:58:11;;;;;;;;;;;;;;;25.37;47.80;101339.25;5074196;28;19924;-61
2023/09/09 05:00:38;;;;;;;;;;;;;;;25.37;47.60;101335.69;5072437;28;20444;-61
2023/09/09 05:03:06;;;;;;;;;;;;;;;25.37;47.62;101332.97;5072201;28;19924;-61
2023/09/09 05:05:34;;;;;;;;;;;;;;;25.37;47.65;101330.28;5073063;28;19925;-61
2023/09/09 05:08:01;;;;;;;;;;;;;;;25.37;47.78;101332.97;5071849;28;19931;-59
2023/09/09 05:10:32;;;;;;;;;;;;;;;25.36;47.81;101329.44;5071794;28;19928;-59
2023/09/09 05:13:01;;;;;;;;;;;;;;;25.37;48.07;101335.69;5072434;28;19924;-59
2023/09/09 05:15:28;;;;;;;;;;;;;;;25.38;47.73;101340.09;5071675;28;20398;-59
2023/09/09 05:17:57;;;;;;;;;;;;;;;25.38;47.75;101340.94;5074001;28;20409;-61
2023/09/09 05:20:24;;;;;;;;;;;;;;;25.37;47.81;101341.13;5072096;28;19931;-61
2023/09/09 05:22:51;;;;;;;;;;;;;;;25.36;47.80;101334.84;5072197;28;19932;-61
2023/09/09 05:25:19;;;;;;;;;;;;;;;25.37;47.70;101341.97;5073629;28;19947;-61
2023/09/09 05:27:46;;;;;;;;;;;;;;;25.37;47.66;101332.97;5067208;28;19925;-60
2023/09/09 05:30:14;;;;;;;;;;;;;;;25.36;47.81;101339.38;5072097;28;19924;-59
2023/09/09 05:32:42;;;;;;;;;;;;;;;25.36;47.45;101333.97;5072036;28;20290;-59
2023/09/09 05:35:10;;;;;;;;;;;;;;;25.36;47.71;101344.81;5072223;28;19947;-59
2023/09/09 05:37:37;;;;;;;;;;;;;;;25.37;47.50;101351.97;5105122;28;19931;-59
2023/09/09 05:40:05;;;;;;;;;;;;;;;25.37;47.70;101354.66;5071835;28;19931;-59
2023/09/09 05:42:32;;;;;;;;;;;;;;;25.35;47.77;101346.69;5072030;28;19925;-59
2023/09/09 05:45:01;;;;;;;;;;;;;;;25.37;47.64;101343.81;5073639;28;20293;-59
2023/09/09 05:47:28;;;;;;;;;;;;;;;25.37;47.84;101343.81;5071610;28;20299;-59
2023/09/09 05:49:55;;;;;;;;;;;;;;;25.36;47.72;101350.22;5073983;28;19924;-61
2023/09/09 05:52:22;;;;;;;;;;;;;;;25.38;47.66;101353.66;5075015;28;19924;-61
2023/09/09 05:54:50;;;;;;;;;;;;;;;25.38;47.74;101351.78;5077155;28;19924;-61
2023/09/09 05:57:17;;;;;;;;;;;;;;;25.39;47.93;101352.63;5075471;28;19924;-61
2023/09/09 05:59:45;;;;;;;;;;;;;;;25.40;47.87;101348.91;5075447;28;19931;-59
2023/09/09 06:02:14;;;;;;;;;;;;;;;25.42;48.06;101348.75;5075534;28;20298;-59
2023/09/09 06:04:41;;;;;;;;;;;;;;;25.43;47.93;101358.59;5075523;28;19932;-59
2023/09/09 06:07:09;;;;;;;;;;;;;;;25.42;47.92;101354.19;5076652;28;20279;-59
2023/09/09 06:09:36;;;;;;;;;;;;;;;25.43;47.80;101356.72;5076947;28;19924;-59
2023/09/09 06:12:03;;;;;;;;;;;;;;;25.45;47.95;101359.28;5074797;28;19925;-59
2023/09/09 06:14:31;;;;;;;;;;;;;;;25.45;47.83;101365.56;5075346;28;19932;-59
2023/09/09 06:16:58;;;;;;;;;;;;;;;25.45;47.85;101365.56;5075241;28;19924;-59
2023/09/09 06:19:26;;;;;;;;;;;;;;;25.46;47.85;101367.25;5075753;28;19931;-61
2023/09/09 06:21:53;;;;;;;;;;;;;;;25.48;47.79;101367.09;5074457;28;19925;-61
2023/09/09 06:24:20;;;;;;;;;;;;;;;25.48;47.71;101367.97;5075172;28;19928;-61
2023/09/09 06:26:48;;;;;;;;;;;;;;;25.49;47.86;101366.94;5074442;28;19924;-61
2023/09/09 06:29:15;;;;;;;;;;;;;;;25.51;47.71;101370.34;5076253;28;19931;-58
2023/09/09 06:31:43;;;;;;;;;;;;;;;25.51;47.87;101370.34;5075007;28;19925;-59
2023/09/09 06:34:11;;;;;;;;;;;;;;;25.52;47.85;101363.03;5075158;28;19931;-59
2023/09/09 06:36:38;;;;;;;;;;;;;;;25.52;48.08;101372.06;5074602;28;19925;-59
2023/09/09 06:39:06;;;;;;;;;;;;;;;25.53;47.95;101364.78;5074993;28;20298;-59
2023/09/09 06:41:34;;;;;;;;;;;;;;;25.55;48.25;101370.88;5071157;28;19924;-59
2023/09/09 06:44:01;;;;;;;;;;;;;;;25.54;48.17;101374.59;5076054;28;19935;-59
2023/09/09 06:46:28;;;;;;;;;;;;;;;25.55;48.09;101377.13;5075940;28;19932;-59
2023/09/09 06:48:55;;;;;;;;;;;;;;;25.56;48.06;101375.28;5076504;28;19924;-59
2023/09/09 06:51:23;;;;;;;;;;;;;;;25.57;48.14;101379.72;5075782;28;19925;-59
2023/09/09 06:53:50;;;;;;;;;;;;;;;25.59;48.26;101377.66;5076303;28;19924;-59
2023/09/09 06:56:18;;;;;;;;;;;;;;;25.59;48.42;101381.22;5076110;28;19925;-59
2023/09/09 06:58:45;;;;;;;;;;;;;;;25.61;48.62;101381.94;5075854;28;19939;-61
2023/09/09 07:01:12;;;;;;;;;;;;;;;25.63;48.60;101381.75;5074033;28;19924;-61
2023/09/09 07:03:40;;;;;;;;;;;;;;;25.64;48.76;101381.63;5075321;28;19931;-61
2023/09/09 07:06:08;;;;;;;;;;;;;;;25.67;48.88;101387.72;5075765;28;19932;-61
2023/09/09 07:08:39;;;;;;;;;;;;;;;25.67;48.80;101390.44;5075871;28;20302;-59
2023/09/09 07:11:06;;;;;;;;;;;;;;;25.68;48.76;101392.13;5075503;28;19924;-59
2023/09/09 07:13:34;;;;;;;;;;;;;;;25.68;48.75;101392.97;5075472;28;20014;-59
2023/09/09 07:16:01;;;;;;;;;;;;;;;25.69;48.67;101402.84;5075640;28;19928;-59
2023/09/09 07:18:28;;;;;;;;;;;;;;;25.70;48.90;101400.97;5075466;28;19933;-62
2023/09/09 07:20:56;;;;;;;;;;;;;;;25.72;48.75;101398.94;5075174;28;19924;-62
2023/09/09 07:23:23;;;;;;;;;;;;;;;25.73;48.79;101392.53;5075763;28;19931;-61
2023/09/09 07:25:51;;;;;;;;;;;;;;;25.72;48.75;101394.34;5075423;28;19947;-61
2023/09/09 07:28:18;;;;;;;;;;;;;;;25.74;48.76;101392.34;5075392;28;19924;-59
2023/09/09 07:30:45;;;;;;;;;;;;;;;25.74;48.62;101397.75;5074872;28;19925;-59
2023/09/09 07:33:12;;;;;;;;;;;;;;;25.76;48.72;101397.59;5074047;28;19924;-59
2023/09/09 07:35:40;;;;;;;;;;;;;;;25.77;48.69;101392.06;5074773;28;19924;-59
2023/09/09 07:38:07;;;;;;;;;;;;;;;25.77;48.84;101397.50;5075494;28;19924;-61
2023/09/09 07:40:37;;;;;;;;;;;;;;;25.79;48.81;101391.88;5074775;28;19932;-62
2023/09/09 07:43:05;;;;;;;;;;;;;;;25.79;48.67;101390.03;5075018;28;20390;-62
2023/09/09 07:45:32;;;;;;;;;;;;;;;25.80;48.59;101383.59;5074725;28;19924;-62
2023/09/09 07:48:00;;;;;;;;;;;;;;;25.81;48.72;101393.44;5075227;28;19932;-61
2023/09/09 07:50:27;;;;;;;;;;;;;;;25.81;48.70;101390.72;5074588;28;19925;-61
2023/09/09 07:52:54;;;;;;;;;;;;;;;25.81;48.59;101385.31;5074912;28;19991;-61
2023/09/09 07:55:22;;;;;;;;;;;;;;;25.81;48.63;101388.03;5074464;28;19928;-62
2023/09/09 07:57:49;;;;;;;;;;;;;;;25.83;48.55;101393.28;5072219;28;19931;-61
2023/09/09 08:00:17;;;;;;;;;;;;;;;25.84;48.84;101393.09;5074385;28;19931;-59
2023/09/09 08:02:44;;;;;;;;;;;;;;;25.84;48.68;101392.25;5074496;28;19947;-59
2023/09/09 08:05:11;;;;;;;;;;;;;;;25.86;48.60;101390.25;5074382;28;19935;-59
2023/09/09 08:07:38;;;;;;;;;;;;;;;25.86;48.63;101384.81;5074345;28;19924;-59
2023/09/09 08:10:08;;;;;;;;;;;;;;;25.88;48.80;101390.91;5074440;28;19925;-62
2023/09/09 08:12:36;;;;;;;;;;;;;;;25.89;48.92;101387.22;5074835;28;20282;-60
2023/09/09 08:15:07;;;;;;;;;;;;;;;25.91;49.08;101389.75;5073733;28;19931;-60
2023/09/09 08:17:34;;;;;;;;;;;;;;;25.92;49.01;101391.44;5074361;28;19947;-60
2023/09/09 08:20:07;;;;;;;;;;;;;;;25.94;49.00;101389.44;5074042;28;19932;-59
2023/09/09 08:22:34;;;;;;;;;;;;;;;25.93;49.25;101391.31;5074451;28;19925;-58
2023/09/09 08:25:02;;;;;;;;;;;;;;;25.92;49.57;101386.03;5072744;28;19932;-58
2023/09/09 08:27:29;;;;;;;;;;;;;;;25.88;49.22;101390.91;5073555;28;19939;-60
2023/09/09 08:29:57;;;;;;;;;;;;;;;25.82;49.35;101392.41;5073160;28;19932;-57
2023/09/09 08:32:24;;;;;;;;;;;;;;;25.80;49.33;101391.72;5073502;28;19935;-59
2023/09/09 08:34:52;;;;;;;;;;;;;;;25.77;49.54;101392.06;5069821;28;19933;-59
2023/09/09 08:37:19;;;;;;;;;;;;;;;25.77;49.88;101397.50;5059155;28;19924;-61
2023/09/09 08:39:51;;;;;;;;;;;;;;;25.76;50.14;101392.16;5073736;28;20290;-59
2023/09/09 08:42:37;;;;;;;;;;;;;;;25.74;50.42;101395.06;5074016;28;19990;-58
2023/09/09 08:45:09;;;;;;;;;;;;;;;25.76;50.40;101398.44;5067570;28;19931;-61
2023/09/09 08:47:36;;;;;;;;;;;;;;;25.76;50.65;101394.88;5073394;28;19925;-59
2023/09/09 08:50:04;;;;;;;;;;;;;;;25.73;50.94;101390.66;5073252;28;20283;-59
2023/09/09 08:52:31;;;;;;;;;;;;;;;25.73;50.85;101392.53;5073974;28;20310;-62
2023/09/09 08:54:59;;;;;;;;;;;;;;;25.75;50.80;101391.31;5073362;28;19925;-60
2023/09/09 08:57:28;;;;;;;;;;;;;;;25.75;50.68;101391.31;5073445;28;19925;-58
2023/09/09 08:59:55;;;;;;;;;;;;;;;25.76;50.69;101397.59;5073763;28;19924;-59
2023/09/09 09:02:23;;;;;;;;;;;;;;;25.78;50.81;101387.50;5073280;28;19924;-59
2023/09/09 09:04:52;;;;;;;;;;;;;;;25.79;50.81;101390.03;5073410;28;19925;-60
2023/09/09 09:07:20;;;;;;;;;;;;;;;25.82;50.87;101391.56;5073472;28;20306;-59
2023/09/09 09:09:47;;;;;;;;;;;;;;;25.80;50.99;101389.00;5073147;28;19932;-59
2023/09/09 09:12:14;;;;;;;;;;;;;;;25.81;50.88;101395.31;5072321;28;19938;-59
2023/09/09 09:14:47;;;;;;;;;;;;;;;25.81;50.84;101389.88;5072814;28;19932;-61
2023/09/09 09:17:18;;;;;;;;;;;;;;;25.79;50.30;101392.72;5072998;28;19924;-60
2023/09/09 09:19:45;;;;;;;;;;;;;;;25.77;50.12;101388.47;5072203;28;20363;-58
2023/09/09 09:22:13;;;;;;;;;;;;;;;25.76;49.80;101384.88;5073014;28;19929;-62
2023/09/09 09:24:42;;;;;;;;;;;;;;;25.76;49.44;101386.75;5073196;28;19924;-59
2023/09/09 09:27:12;;;;;;;;;;;;;;;25.77;49.42;101383.03;5075288;28;19924;-61
2023/09/09 09:29:48;;;;;;;;;;;;;;;25.77;49.33;101381.22;5077121;28;19928;-60
2023/09/09 09:32:18;;;;;;;;;;;;;;;25.78;49.60;101379.34;5076844;28;19924;-61
2023/09/09 09:34:46;;;;;;;;;;;;;;;25.79;49.61;101378.31;5077666;28;19924;-61
2023/09/09 09:37:17;;;;;;;;;;;;;;;25.80;49.51;101374.59;5061952;28;19955;-62
2023/09/09 09:39:44;;;;;;;;;;;;;;;25.82;49.55;101375.31;5075265;28;19924;-61
2023/09/09 09:42:12;;;;;;;;;;;;;;;25.84;49.65;101375.97;5076421;28;19928;-61
2023/09/09 09:44:39;;;;;;;;;;;;;;;25.86;49.65;101373.97;5077239;28;19939;-61
2023/09/09 09:47:08;;;;;;;;;;;;;;;25.88;49.50;101371.94;5076744;28;19947;-59
2023/09/09 09:49:40;;;;;;;;;;;;;;;25.89;49.57;101370.94;5076758;28;19932;-59
2023/09/09 09:52:08;;;;;;;;;;;;;;;25.90;49.83;101372.63;5076724;28;20342;-60
2023/09/09 09:54:36;;;;;;;;;;;;;;;25.91;49.61;101370.75;5076403;28;20302;-60
2023/09/09 09:57:04;;;;;;;;;;;;;;;25.92;49.71;101369.75;5076423;28;19925;-60
2023/09/09 09:59:36;;;;;;;;;;;;;;;25.94;49.56;101374.00;5076884;28;19928;-58
2023/09/09 10:02:03;;;;;;;;;;;;;;;25.95;49.46;101370.28;5076297;28;19925;-59
2023/09/09 10:04:39;;;;;;;;;;;;;;;25.96;49.33;101363.81;5076589;28;20393;-57
2023/09/09 10:07:09;;;;;;;;;;;;;;;25.98;48.93;101360.97;5076132;28;19947;-58
2023/09/09 10:09:41;;;;;;;;;;;;;;;25.99;48.89;101355.38;5076209;28;19995;-59
2023/09/09 10:12:17;;;;;;;;;;;;;;;26.01;48.75;101371.47;5076167;28;19925;-60
2023/09/09 10:14:51;;;;;;;;;;;;;;;26.03;48.38;101364.88;5076547;28;19924;-60
2023/09/09 10:17:21;;;;;;;;;;;;;;;26.06;48.04;101367.28;5075979;28;20385;-60
2023/09/09 10:19:50;;;;;;;;;;;;;;;26.08;47.75;101351.66;5075950;28;19924;-60
2023/09/09 10:22:18;;;;;;;;;;;;;;;26.09;47.85;101353.38;5076254;28;19931;-61
2023/09/09 10:24:46;;;;;;;;;;;;;;;26.09;48.00;101350.69;5076029;28;19939;-60
2023/09/09 10:27:14;;;;;;;;;;;;;;;26.10;47.92;101355.09;5075924;28;19932;-60
2023/09/09 10:29:41;;;;;;;;;;;;;;;26.11;47.97;101348.63;5076336;28;19931;-60
2023/09/09 10:32:10;;;;;;;;;;;;;;;26.11;47.92;101345.91;5075653;28;20290;-59
2023/09/09 10:34:37;;;;;;;;;;;;;;;26.11;48.16;101347.78;5075541;28;19924;-60
2023/09/09 10:37:06;;;;;;;;;;;;;;;26.09;48.01;101338.94;5067887;28;19925;-60
2023/09/09 10:39:33;;;;;;;;;;;;;;;26.08;47.76;101339.97;5064402;28;19947;-64
2023/09/09 10:42:03;;;;;;;;;;;;;;;26.08;47.59;101334.53;5074474;28;19924;-62
2023/09/09 10:44:30;;;;;;;;;;;;;;;26.07;47.47;101330.13;5074190;28;20405;-62
2023/09/09 10:46:57;;;;;;;;;;;;;;;26.07;47.42;101322.00;5075422;28;19931;-60
2023/09/09 10:49:26;;;;;;;;;;;;;;;26.07;47.63;101330.97;5076213;28;19931;-60
2023/09/09 10:51:54;;;;;;;;;;;;;;;26.07;47.48;101322.84;5075428;28;19928;-61
2023/09/09 10:54:22;;;;;;;;;;;;;;;26.07;47.22;101322.00;5075333;28;20366;-65
2023/09/09 10:56:51;;;;;;;;;;;;;;;26.07;46.98;101317.41;5075691;28;19925;-61
2023/09/09 10:59:26;;;;;;;;;;;;;;;26.07;47.03;101317.41;5075573;28;19924;-60
2023/09/09 11:02:08;;;;;;;;;;;;;;;26.07;47.19;101311.13;5075508;28;19935;-60
2023/09/09 11:04:37;;;;;;;;;;;;;;;26.08;47.37;101302.81;5068993;28;20298;-59
2023/09/09 11:07:08;;;;;;;;;;;;;;;26.08;47.63;101297.41;5074999;28;19947;-60
2023/09/09 11:09:36;;;;;;;;;;;;;;;26.09;47.41;101304.53;5075224;28;19924;-60
2023/09/09 11:12:14;;;;;;;;;;;;;;;26.11;47.29;101299.78;5075386;28;20397;-58
2023/09/09 11:14:47;;;;;;;;;;;;;;;26.12;47.14;101306.91;5075210;28;19925;-59
2023/09/09 11:17:15;;;;;;;;;;;;;;;26.13;47.08;101299.63;5069049;28;19932;-60
2023/09/09 11:19:43;;;;;;;;;;;;;;;26.14;47.28;101299.47;5075091;28;19931;-60
2023/09/09 11:22:11;;;;;;;;;;;;;;;26.16;47.20;101301.16;5075206;28;19924;-58
2023/09/09 11:24:38;;;;;;;;;;;;;;;26.17;47.31;101294.72;5074854;28;19924;-60
2023/09/09 11:27:06;;;;;;;;;;;;;;;26.19;47.27;101300.81;5075601;28;19932;-60
2023/09/09 11:29:33;;;;;;;;;;;;;;;26.20;47.10;101291.66;5075002;28;19935;-59
2023/09/09 11:32:09;;;;;;;;;;;;;;;26.20;46.88;101289.78;5074612;28;19932;-58
2023/09/09 11:34:37;;;;;;;;;;;;;;;26.21;46.77;101288.81;5075047;28;19947;-57
2023/09/09 11:37:04;;;;;;;;;;;;;;;26.22;46.88;101293.22;5074334;28;19924;-58
2023/09/09 11:39:39;;;;;;;;;;;;;;;26.23;46.90;101302.19;5055983;28;19925;-63
2023/09/09 11:42:06;;;;;;;;;;;;;;;26.22;46.82;101293.22;5074388;28;19924;-63
2023/09/09 11:44:39;;;;;;;;;;;;;;;26.23;46.80;101294.91;5074649;28;19929;-62
2023/09/09 11:47:07;;;;;;;;;;;;;;;26.23;47.02;101289.47;5073855;28;19925;-63
2023/09/09 11:49:37;;;;;;;;;;;;;;;26.25;47.37;101292.88;5074105;28;19929;-62
2023/09/09 11:52:05;;;;;;;;;;;;;;;26.24;47.77;101285.72;5073695;28;19924;-62
2023/09/09 11:54:32;;;;;;;;;;;;;;;26.24;48.10;101287.59;5073840;28;19925;-62
2023/09/09 11:57:06;;;;;;;;;;;;;;;26.24;48.62;101276.75;5072614;28;19925;-62
2023/09/09 11:59:46;;;;;;;;;;;;;;;26.22;48.58;101279.63;5074095;28;20124;-63
2023/09/09 12:02:32;;;;;;;;;;;;;;;26.21;48.46;101277.94;5065467;28;19935;-64
2023/09/09 12:05:01;;;;;;;;;;;;;;;26.22;48.43;101276.94;5074221;28;19925;-63
2023/09/09 12:07:29;;;;;;;;;;;;;;;26.23;48.61;101277.78;5073083;28;20301;-63
2023/09/09 12:09:58;;;;;;;;;;;;;;;26.22;48.66;101279.63;5063758;28;19944;-62
2023/09/09 12:12:25;;;;;;;;;;;;;;;26.22;48.52;101270.66;5073691;28;19924;-64
2023/09/09 12:14:54;;;;;;;;;;;;;;;26.23;48.60;101273.19;5073910;28;19939;-64
2023/09/09 12:17:21;;;;;;;;;;;;;;;26.22;48.42;101262.50;5074295;28;19925;-57
2023/09/09 12:19:58;;;;;;;;;;;;;;;26.23;48.36;101261.50;5073727;28;19931;-60
2023/09/09 12:22:30;;;;;;;;;;;;;;;26.23;47.88;101256.06;5074214;28;19931;-55
2023/09/09 12:25:04;;;;;;;;;;;;;;;26.23;47.88;101256.06;5072876;28;19936;-55
2023/09/09 12:27:39;;;;;;;;;;;;;;;26.23;47.60;101261.50;5073677;28;20473;-54
2023/09/09 12:30:06;;;;;;;;;;;;;;;26.22;47.25;101248.94;5074033;28;19924;-55
2023/09/09 12:32:33;;;;;;;;;;;;;;;26.23;47.29;101245.19;5072908;28;20334;-54
2023/09/09 12:35:01;;;;;;;;;;;;;;;26.33;45.98;101246.75;5073470;28;19932;-54
2023/09/09 12:37:28;;;;;;;;;;;;;;;26.48;45.04;101243.38;5063809;28;19925;-55
2023/09/09 12:39:59;;;;;;;;;;;;;;;26.52;45.49;101248.31;5061943;28;19928;-57
2023/09/09 12:42:27;;;;;;;;;;;;;;;26.53;48.37;101246.44;5070760;28;19924;-56